createdAt,value
2019-03-03T00:02:03.452Z,9.00
2019-03-03T00:04:33.101Z,9.00
2019-03-03T00:07:02.869Z,9.00
2019-03-03T00:09:32.810Z,9.00
2019-03-03T00:12:02.908Z,9.00
2019-03-03T00:14:32.938Z,9.00
2019-03-03T00:17:02.868Z,9.00
2019-03-03T00:19:32.809Z,9.10
2019-03-03T00:22:03.494Z,9.10
2019-03-03T00:24:33.460Z,9.10
2019-03-03T00:27:03.757Z,9.00
2019-03-03T00:29:33.368Z,9.10
2019-03-03T00:32:03.152Z,9.10
2019-03-03T00:34:33.109Z,9.00
2019-03-03T00:37:25.072Z,9.10
2019-03-03T00:40:12.393Z,9.10
2019-03-03T00:43:19.150Z,9.20
2019-03-03T00:46:08.281Z,9.10
2019-03-03T00:48:56.886Z,9.20
2019-03-03T00:51:45.640Z,9.20
2019-03-03T00:54:35.938Z,9.20
2019-03-03T00:57:28.995Z,9.20
2019-03-03T01:00:16.409Z,9.10
2019-03-03T01:02:55.985Z,9.20
2019-03-03T01:05:39.507Z,9.20
2019-03-03T01:08:30.211Z,9.20
2019-03-03T01:11:37.573Z,9.20
2019-03-03T01:14:24.909Z,9.30
2019-03-03T01:17:22.554Z,9.30
2019-03-03T01:20:07.657Z,9.30
2019-03-03T01:22:46.886Z,9.40
2019-03-03T01:25:17.239Z,9.40
2019-03-03T01:27:47.155Z,9.50
2019-03-03T01:30:17.292Z,9.50
2019-03-03T01:32:47.276Z,9.60
2019-03-03T01:35:17.233Z,9.60
2019-03-03T01:37:47.622Z,9.60
2019-03-03T01:40:17.929Z,9.60
2019-03-03T01:42:48.082Z,9.60
2019-03-03T01:45:17.810Z,9.60
2019-03-03T01:47:47.406Z,9.60
2019-03-03T01:50:17.394Z,9.70
2019-03-03T01:52:46.991Z,9.70
2019-03-03T01:55:17.137Z,9.60
2019-03-03T01:57:46.991Z,9.60
2019-03-03T02:00:22.544Z,9.60
2019-03-03T02:02:52.406Z,9.60
2019-03-03T02:05:23.753Z,9.50
2019-03-03T02:07:53.875Z,9.50
2019-03-03T02:10:24.019Z,9.50
2019-03-03T02:12:53.699Z,9.60
2019-03-03T02:15:23.584Z,9.60
2019-03-03T02:17:53.522Z,9.60
2019-03-03T02:20:23.172Z,9.60
2019-03-03T02:22:53.237Z,9.60
2019-03-03T02:25:23.459Z,9.50
2019-03-03T02:27:53.192Z,9.60
2019-03-03T02:30:23.100Z,9.60
2019-03-03T02:32:53.081Z,9.60
2019-03-03T02:35:22.731Z,9.60
2019-03-03T02:37:52.624Z,9.60
2019-03-03T02:40:22.354Z,9.60
2019-03-03T02:42:52.781Z,9.60
2019-03-03T02:45:22.828Z,9.60
2019-03-03T02:47:53.416Z,9.60
2019-03-03T02:50:23.378Z,9.70
2019-03-03T02:52:54.687Z,9.60
2019-03-03T02:55:24.377Z,9.60
2019-03-03T02:57:53.918Z,9.70
2019-03-03T03:00:24.900Z,9.60
2019-03-03T03:02:56.949Z,9.70
2019-03-03T03:05:46.091Z,9.70
2019-03-03T03:08:19.681Z,9.70
2019-03-03T03:11:08.314Z,9.70
2019-03-03T03:14:00.188Z,9.70
2019-03-03T03:16:51.681Z,9.70
2019-03-03T03:19:40.434Z,9.80
2019-03-03T03:22:28.400Z,9.80
2019-03-03T03:25:19.642Z,9.80
2019-03-03T03:28:11.013Z,9.80
2019-03-03T03:30:50.694Z,9.90
2019-03-03T03:33:39.276Z,9.90
2019-03-03T03:36:42.834Z,9.80
2019-03-03T03:39:29.967Z,9.80
2019-03-03T03:42:12.061Z,9.90
2019-03-03T03:45:01.295Z,9.90
2019-03-03T03:47:39.900Z,9.90
2019-03-03T03:50:22.993Z,9.90
2019-03-03T03:53:10.418Z,9.90
2019-03-03T03:55:58.745Z,9.80
2019-03-03T03:58:33.118Z,9.90
2019-03-03T04:01:22.090Z,9.90
2019-03-03T04:04:14.074Z,9.90
2019-03-03T04:06:59.188Z,9.90
2019-03-03T04:09:38.451Z,9.90
2019-03-03T04:12:33.171Z,9.90
2019-03-03T04:15:20.536Z,9.90
2019-03-03T04:18:10.537Z,9.90
2019-03-03T04:20:57.799Z,9.90
2019-03-03T04:23:45.729Z,9.80
2019-03-03T04:26:23.115Z,9.80
2019-03-03T04:29:00.228Z,9.80
2019-03-03T04:31:39.279Z,9.80
2019-03-03T04:34:19.859Z,9.80
2019-03-03T04:37:20.356Z,9.90
2019-03-03T04:40:17.946Z,9.90
2019-03-03T04:43:06.476Z,9.90
2019-03-03T04:45:41.069Z,9.90
2019-03-03T04:48:30.852Z,9.90
2019-03-03T04:51:34.915Z,10.00
2019-03-03T04:54:23.646Z,10.00
2019-03-03T04:57:09.933Z,10.00
2019-03-03T05:00:01.539Z,10.00
2019-03-03T05:02:53.323Z,10.00
2019-03-03T05:05:32.730Z,10.10
2019-03-03T05:08:25.762Z,10.10
2019-03-03T05:11:11.748Z,10.10
2019-03-03T05:13:54.901Z,10.10
2019-03-03T05:16:41.533Z,10.10
2019-03-03T05:19:23.597Z,10.10
2019-03-03T05:21:53.238Z,10.10
2019-03-03T05:24:22.938Z,10.10
2019-03-03T05:26:52.722Z,10.10
2019-03-03T05:29:22.328Z,10.10
2019-03-03T05:31:52.035Z,10.10
2019-03-03T05:34:21.627Z,10.10
2019-03-03T05:36:51.611Z,10.10
2019-03-03T05:39:21.300Z,10.20
2019-03-03T05:41:50.912Z,10.20
2019-03-03T05:44:20.647Z,10.20
2019-03-03T05:46:50.440Z,10.20
2019-03-03T05:49:20.381Z,10.20
2019-03-03T05:51:50.004Z,10.20
2019-03-03T05:54:20.363Z,10.30
2019-03-03T05:56:49.987Z,10.30
2019-03-03T05:59:19.718Z,10.30
2019-03-03T06:01:49.635Z,10.30
2019-03-03T06:04:19.280Z,10.30
2019-03-03T06:06:48.868Z,10.30
2019-03-03T06:09:18.969Z,10.30
2019-03-03T06:11:48.730Z,10.30
2019-03-03T06:14:18.426Z,10.30
2019-03-03T06:16:48.020Z,10.30
2019-03-03T06:19:17.699Z,10.30
2019-03-03T06:21:47.380Z,10.30
2019-03-03T06:24:17.074Z,10.30
2019-03-03T06:26:46.645Z,10.20
2019-03-03T06:29:16.582Z,10.20
2019-03-03T06:31:46.246Z,10.20
2019-03-03T06:34:16.032Z,10.20
2019-03-03T06:36:45.958Z,10.20
2019-03-03T06:39:15.650Z,10.30
2019-03-03T06:41:45.289Z,10.30
2019-03-03T06:44:14.905Z,10.30
2019-03-03T06:46:44.880Z,10.40
2019-03-03T06:49:14.492Z,10.40
2019-03-03T06:51:44.335Z,10.40
2019-03-03T06:54:13.999Z,10.50
2019-03-03T06:56:43.654Z,10.50
2019-03-03T06:59:13.487Z,10.40
2019-03-03T07:01:43.049Z,10.50
2019-03-03T07:04:12.826Z,10.50
2019-03-03T07:06:42.708Z,10.50
2019-03-03T07:09:12.413Z,10.50
2019-03-03T07:11:41.962Z,10.50
2019-03-03T07:14:11.896Z,10.60
2019-03-03T07:16:41.959Z,10.60
2019-03-03T07:19:13.326Z,10.60
2019-03-03T07:21:42.820Z,10.60
2019-03-03T07:24:12.659Z,10.60
2019-03-03T07:26:42.299Z,10.70
2019-03-03T07:29:11.900Z,10.70
2019-03-03T07:31:41.662Z,10.70
2019-03-03T07:34:11.384Z,10.70
2019-03-03T07:36:41.101Z,10.70
2019-03-03T07:39:18.475Z,10.80
2019-03-03T07:41:48.904Z,10.80
2019-03-03T07:44:18.785Z,10.90
2019-03-03T07:46:48.519Z,11.00
2019-03-03T07:49:18.614Z,11.00
2019-03-03T07:51:48.356Z,11.00
2019-03-03T07:54:18.168Z,11.00
2019-03-03T07:56:47.918Z,11.00
2019-03-03T07:59:17.958Z,11.00
2019-03-03T08:01:48.580Z,11.00
2019-03-03T08:04:18.608Z,11.00
2019-03-03T08:06:49.925Z,10.90
2019-03-03T08:09:19.638Z,10.90
2019-03-03T08:11:49.738Z,10.80
2019-03-03T08:14:19.427Z,10.80
2019-03-03T08:16:49.714Z,10.80
2019-03-03T08:19:19.959Z,10.70
2019-03-03T08:21:49.666Z,10.60
2019-03-03T08:24:19.585Z,10.50
2019-03-03T08:26:49.277Z,10.50
2019-03-03T08:29:19.356Z,10.50
2019-03-03T08:31:48.998Z,10.40
2019-03-03T08:34:19.211Z,10.40
2019-03-03T08:36:49.019Z,10.20
2019-03-03T08:39:18.638Z,10.20
2019-03-03T08:41:52.561Z,10.20
2019-03-03T08:44:41.766Z,10.20
2019-03-03T08:47:42.809Z,10.20
2019-03-03T08:50:19.855Z,10.20
2019-03-03T08:53:17.947Z,10.20
2019-03-03T08:56:07.389Z,10.30
2019-03-03T08:58:43.598Z,10.30
2019-03-03T09:01:33.023Z,10.50
2019-03-03T09:04:24.277Z,10.50
2019-03-03T09:07:16.242Z,10.40
2019-03-03T09:10:10.229Z,10.30
2019-03-03T09:13:10.622Z,10.30
2019-03-03T09:15:47.855Z,10.40
2019-03-03T09:18:45.651Z,10.40
2019-03-03T09:21:34.270Z,10.50
2019-03-03T09:24:38.328Z,10.50
2019-03-03T09:27:26.767Z,10.40
2019-03-03T09:30:33.620Z,10.40
2019-03-03T09:33:30.333Z,10.40
2019-03-03T09:36:17.928Z,10.50
2019-03-03T09:39:09.405Z,10.50
2019-03-03T09:42:04.344Z,10.50
2019-03-03T09:45:08.876Z,10.50
2019-03-03T09:47:58.443Z,10.60
2019-03-03T09:50:49.862Z,10.60
2019-03-03T09:53:37.203Z,10.70
2019-03-03T09:56:13.406Z,10.70
2019-03-03T09:59:11.620Z,10.70
2019-03-03T10:02:15.582Z,10.80
2019-03-03T10:04:58.201Z,10.70
2019-03-03T10:07:45.667Z,10.80
2019-03-03T10:10:33.151Z,10.80
2019-03-03T10:13:30.651Z,10.80
2019-03-03T10:16:06.218Z,10.90
2019-03-03T10:19:06.980Z,10.90
2019-03-03T10:21:47.038Z,10.90
2019-03-03T10:24:26.521Z,11.00
2019-03-03T10:27:30.341Z,11.00
2019-03-03T10:30:21.678Z,11.00
2019-03-03T10:33:09.372Z,11.00
2019-03-03T10:35:56.378Z,11.20
2019-03-03T10:38:36.127Z,11.30
2019-03-03T10:41:16.138Z,11.20
2019-03-03T10:44:07.599Z,11.20
2019-03-03T10:46:55.180Z,11.30
2019-03-03T10:49:56.127Z,11.20
2019-03-03T10:52:46.354Z,11.20
2019-03-03T10:55:24.938Z,11.30
2019-03-03T10:58:08.464Z,11.40
2019-03-03T11:00:51.023Z,11.40
2019-03-03T11:03:39.430Z,11.50
2019-03-03T11:06:30.471Z,11.60
2019-03-03T11:09:11.359Z,11.50
2019-03-03T11:11:50.482Z,11.50
2019-03-03T11:14:26.885Z,11.60
2019-03-03T11:17:13.742Z,11.50
2019-03-03T11:19:59.214Z,11.50
2019-03-03T11:22:46.401Z,11.40
2019-03-03T11:25:33.000Z,11.50
2019-03-03T11:28:23.986Z,11.50
2019-03-03T11:31:12.288Z,11.50
2019-03-03T11:34:01.073Z,11.60
2019-03-03T11:36:50.007Z,11.70
2019-03-03T11:39:37.318Z,12.00
2019-03-03T11:42:14.596Z,12.10
2019-03-03T11:45:12.074Z,12.20
2019-03-03T11:48:04.141Z,12.00
2019-03-03T11:50:47.901Z,12.10
2019-03-03T11:53:54.617Z,12.10
2019-03-03T11:56:43.681Z,12.00
2019-03-03T11:59:32.333Z,12.10
2019-03-03T12:02:18.723Z,12.10
2019-03-03T12:05:13.243Z,12.20
2019-03-03T12:07:55.620Z,12.20
2019-03-03T12:10:44.135Z,12.20
2019-03-03T12:13:36.060Z,12.10
2019-03-03T12:16:40.482Z,12.20
2019-03-03T12:19:28.111Z,12.30
2019-03-03T12:22:22.605Z,12.30
2019-03-03T12:25:11.578Z,12.30
2019-03-03T12:28:00.258Z,12.30
2019-03-03T12:30:45.358Z,12.30
2019-03-03T12:33:37.086Z,12.30
2019-03-03T12:36:18.573Z,12.30
2019-03-03T12:39:10.340Z,12.20
2019-03-03T12:42:05.157Z,12.20
2019-03-03T12:44:50.532Z,12.20
2019-03-03T12:47:38.267Z,12.20
2019-03-03T12:50:24.561Z,12.20
2019-03-03T12:53:22.375Z,12.20
2019-03-03T12:56:16.377Z,12.20
2019-03-03T12:59:04.948Z,12.20
2019-03-03T13:01:52.609Z,12.10
2019-03-03T13:04:44.616Z,12.10
2019-03-03T13:07:33.712Z,12.20
2019-03-03T13:10:22.434Z,12.20
2019-03-03T13:13:17.224Z,12.20
2019-03-03T13:16:05.813Z,12.20
2019-03-03T13:18:57.354Z,12.20
2019-03-03T13:21:46.520Z,12.20
2019-03-03T13:24:34.193Z,12.20
2019-03-03T13:27:22.028Z,12.10
2019-03-03T13:30:10.233Z,12.20
2019-03-03T13:32:52.964Z,12.10
2019-03-03T13:35:40.008Z,12.10
2019-03-03T13:38:27.228Z,12.00
2019-03-03T13:41:06.214Z,12.00
2019-03-03T13:43:36.115Z,12.00
2019-03-03T13:46:06.196Z,11.90
2019-03-03T13:48:35.923Z,11.90
2019-03-03T13:51:05.777Z,11.90
2019-03-03T13:53:35.522Z,11.90
2019-03-03T13:56:05.825Z,11.80
2019-03-03T13:58:35.897Z,11.80
2019-03-03T14:01:05.728Z,11.80
2019-03-03T14:03:35.388Z,11.80
2019-03-03T14:06:05.835Z,11.90
2019-03-03T14:08:35.910Z,11.90
2019-03-03T14:11:05.646Z,11.90
2019-03-03T14:13:35.730Z,12.00
2019-03-03T14:16:05.489Z,12.00
2019-03-03T14:18:35.388Z,12.00
2019-03-03T14:21:05.374Z,12.10
2019-03-03T14:23:35.046Z,12.20
2019-03-03T14:26:05.050Z,12.20
2019-03-03T14:28:34.811Z,12.30
2019-03-03T14:31:04.657Z,12.20
2019-03-03T14:33:34.281Z,12.30
2019-03-03T14:36:04.140Z,12.30
2019-03-03T14:38:34.170Z,12.40
2019-03-03T14:41:04.009Z,12.30
2019-03-03T14:43:34.023Z,12.30
2019-03-03T14:46:03.845Z,12.20
2019-03-03T14:48:33.518Z,12.20
2019-03-03T14:51:03.109Z,12.20
2019-03-03T14:53:32.718Z,12.20
2019-03-03T14:56:02.412Z,12.20
2019-03-03T14:58:32.224Z,12.20
2019-03-03T15:01:02.013Z,12.20
2019-03-03T15:03:31.701Z,12.20
2019-03-03T15:06:01.381Z,12.20
2019-03-03T15:08:31.530Z,12.20
2019-03-03T15:11:01.220Z,12.30
2019-03-03T15:13:30.961Z,12.20
2019-03-03T15:16:01.126Z,12.20
2019-03-03T15:18:30.828Z,12.20
2019-03-03T15:21:00.855Z,12.30
2019-03-03T15:23:30.644Z,12.30
2019-03-03T15:26:00.565Z,12.30
2019-03-03T15:28:30.227Z,12.30
2019-03-03T15:30:59.914Z,12.40
2019-03-03T15:33:29.643Z,12.40
2019-03-03T15:36:00.030Z,12.30
2019-03-03T15:38:29.563Z,12.30
2019-03-03T15:40:59.606Z,12.30
2019-03-03T15:43:29.787Z,12.30
2019-03-03T15:45:59.494Z,12.30
2019-03-03T15:48:29.560Z,12.30
2019-03-03T15:50:59.247Z,12.30
2019-03-03T15:53:29.328Z,12.30
2019-03-03T15:55:59.044Z,12.30
2019-03-03T15:58:29.030Z,12.30
2019-03-03T16:00:58.832Z,12.30
2019-03-03T16:03:28.451Z,12.30
2019-03-03T16:05:58.416Z,12.30
2019-03-03T16:08:28.148Z,12.30
2019-03-03T16:10:58.831Z,12.20
2019-03-03T16:13:28.588Z,12.20
2019-03-03T16:15:58.238Z,12.20
2019-03-03T16:18:27.923Z,12.20
2019-03-03T16:20:57.612Z,12.20
2019-03-03T16:23:27.263Z,12.20
2019-03-03T16:25:57.271Z,12.20
2019-03-03T16:28:27.246Z,12.20
2019-03-03T16:30:57.023Z,12.20
2019-03-03T16:33:26.992Z,12.20
2019-03-03T16:35:57.227Z,12.20
2019-03-03T16:38:27.131Z,12.20
2019-03-03T16:40:57.074Z,12.30
2019-03-03T16:43:27.062Z,12.30
2019-03-03T16:45:57.211Z,12.30
2019-03-03T16:48:27.501Z,12.30
2019-03-03T16:50:57.283Z,12.30
2019-03-03T16:53:26.940Z,12.30
2019-03-03T16:55:57.111Z,12.30
2019-03-03T16:58:26.899Z,12.30
2019-03-03T17:00:56.604Z,12.20
2019-03-03T17:03:26.570Z,12.30
2019-03-03T17:05:57.547Z,12.20
2019-03-03T17:08:27.189Z,12.20
2019-03-03T17:10:56.923Z,12.20
2019-03-03T17:13:27.197Z,12.30
2019-03-03T17:15:58.776Z,12.30
2019-03-03T17:18:28.268Z,12.30
2019-03-03T17:20:58.663Z,12.30
2019-03-03T17:23:29.392Z,12.30
2019-03-03T17:25:59.603Z,12.30
2019-03-03T17:28:29.312Z,12.30
2019-03-03T17:30:59.238Z,12.30
2019-03-03T17:33:29.520Z,12.30
2019-03-03T17:35:59.584Z,12.20
2019-03-03T17:38:29.324Z,12.20
2019-03-03T17:40:58.959Z,12.20
2019-03-03T17:43:28.573Z,12.30
2019-03-03T17:45:58.410Z,12.30
2019-03-03T17:48:28.497Z,12.30
2019-03-03T17:50:58.231Z,12.30
2019-03-03T17:53:28.252Z,12.40
2019-03-03T17:55:57.917Z,12.30
2019-03-03T17:58:27.954Z,12.40
2019-03-03T18:00:58.591Z,12.30
2019-03-03T18:03:28.594Z,12.30
2019-03-03T18:05:58.930Z,12.30
2019-03-03T18:08:28.949Z,12.40
2019-03-03T18:10:58.904Z,12.30
2019-03-03T18:13:28.557Z,12.30
2019-03-03T18:15:58.618Z,12.30
2019-03-03T18:18:28.548Z,12.30
2019-03-03T18:20:58.226Z,12.30
2019-03-03T18:23:29.622Z,12.40
2019-03-03T18:25:59.183Z,12.30
2019-03-03T18:28:29.422Z,12.40
2019-03-03T18:30:59.165Z,12.40
2019-03-03T18:33:29.146Z,12.40
2019-03-03T18:35:59.538Z,12.40
2019-03-03T18:38:29.469Z,12.30
2019-03-03T18:40:59.529Z,12.30
2019-03-03T18:43:29.252Z,12.30
2019-03-03T18:45:58.994Z,12.40
2019-03-03T18:48:28.676Z,12.40
2019-03-03T18:50:58.564Z,12.40
2019-03-03T18:53:28.355Z,12.40
2019-03-03T18:55:58.024Z,12.40
2019-03-03T18:58:28.094Z,12.40
2019-03-03T19:00:58.198Z,12.40
2019-03-03T19:03:27.912Z,12.50
2019-03-03T19:05:57.678Z,12.50
2019-03-03T19:08:27.731Z,12.50
2019-03-03T19:10:58.300Z,12.60
2019-03-03T19:13:27.878Z,12.60
2019-03-03T19:15:58.336Z,12.60
2019-03-03T19:18:28.559Z,12.60
2019-03-03T19:20:58.258Z,12.60
2019-03-03T19:23:28.071Z,12.60
2019-03-03T19:25:57.688Z,12.60
2019-03-03T19:28:27.416Z,12.60
2019-03-03T19:30:57.150Z,12.50
2019-03-03T19:33:37.268Z,12.50
2019-03-03T19:36:07.264Z,12.50
2019-03-03T19:38:37.636Z,12.60
2019-03-03T19:41:08.131Z,12.60
2019-03-03T19:43:37.812Z,12.60
2019-03-03T19:46:08.149Z,12.60
2019-03-03T19:48:38.143Z,12.60
2019-03-03T19:51:07.788Z,12.60
2019-03-03T19:53:37.608Z,12.70
2019-03-03T19:56:07.627Z,12.70
2019-03-03T19:58:38.030Z,12.70
2019-03-03T20:01:08.406Z,12.70
2019-03-03T20:03:38.790Z,12.70
2019-03-03T20:06:08.572Z,12.70
2019-03-03T20:08:38.658Z,12.70
2019-03-03T20:11:08.401Z,12.80
2019-03-03T20:13:38.710Z,12.80
2019-03-03T20:16:08.429Z,12.90
2019-03-03T20:18:38.773Z,12.70
2019-03-03T20:21:08.786Z,12.70
2019-03-03T20:23:38.415Z,12.70
2019-03-03T20:26:09.077Z,12.70
2019-03-03T20:28:39.351Z,12.70
2019-03-03T20:31:09.297Z,12.80
2019-03-03T20:33:38.903Z,12.80
2019-03-03T20:36:08.666Z,12.80
2019-03-03T20:38:38.330Z,12.80
2019-03-03T20:41:08.797Z,12.80
2019-03-03T20:43:38.487Z,12.80
2019-03-03T20:46:08.917Z,12.80
2019-03-03T20:48:40.206Z,12.80
2019-03-03T20:51:10.899Z,12.80
2019-03-03T20:53:40.605Z,12.80
2019-03-03T20:56:10.245Z,12.80
2019-03-03T20:58:40.368Z,12.80
2019-03-03T21:01:10.359Z,12.80
2019-03-03T21:03:40.071Z,12.80
2019-03-03T21:06:09.841Z,12.80
2019-03-03T21:08:39.838Z,12.80
2019-03-03T21:11:10.148Z,12.80
2019-03-03T21:13:39.950Z,13.00
2019-03-03T21:16:09.702Z,12.90
2019-03-03T21:18:40.533Z,12.90
2019-03-03T21:21:10.694Z,12.80
2019-03-03T21:23:41.239Z,12.80
2019-03-03T21:26:11.376Z,12.80
2019-03-03T21:28:42.686Z,12.90
2019-03-03T21:31:12.596Z,12.80
2019-03-03T21:33:42.537Z,12.90
2019-03-03T21:36:13.720Z,13.00
2019-03-03T21:38:44.358Z,12.90
2019-03-03T21:41:14.523Z,12.90
2019-03-03T21:43:44.544Z,12.90
2019-03-03T21:46:14.191Z,13.00
2019-03-03T21:48:43.859Z,13.00
2019-03-03T21:51:13.852Z,13.10
2019-03-03T21:53:43.597Z,13.00
2019-03-03T21:56:13.898Z,13.00
2019-03-03T21:58:43.891Z,13.00
2019-03-03T22:01:14.188Z,13.00
2019-03-03T22:03:43.999Z,13.00
2019-03-03T22:06:13.699Z,13.10
2019-03-03T22:08:43.639Z,13.10
2019-03-03T22:11:15.110Z,13.10
2019-03-03T22:13:45.161Z,13.00
2019-03-03T22:16:15.122Z,13.00
2019-03-03T22:18:45.443Z,13.00
2019-03-03T22:21:15.849Z,13.10
2019-03-03T22:23:45.490Z,13.10
2019-03-03T22:26:15.143Z,13.10
2019-03-03T22:28:44.821Z,13.10
2019-03-03T22:31:14.915Z,13.10
2019-03-03T22:33:45.008Z,13.10
2019-03-03T22:36:14.923Z,13.10
2019-03-03T22:38:45.741Z,13.10
2019-03-03T22:41:15.440Z,13.10
2019-03-03T22:43:45.170Z,13.10
2019-03-03T22:46:14.703Z,13.00
2019-03-03T22:48:44.751Z,13.00
2019-03-03T22:51:14.373Z,12.90
2019-03-03T22:53:44.448Z,12.90
2019-03-03T22:56:14.248Z,12.90
2019-03-03T22:58:43.978Z,12.90
2019-03-03T23:01:21.338Z,12.90
2019-03-03T23:04:28.485Z,12.90
2019-03-03T23:07:12.385Z,13.00
2019-03-03T23:10:34.881Z,13.00
2019-03-03T23:13:16.191Z,13.00
2019-03-03T23:16:28.762Z,13.10
2019-03-03T23:19:41.127Z,13.20
2019-03-03T23:23:13.037Z,13.20
2019-03-03T23:25:52.693Z,13.30
2019-03-03T23:28:23.386Z,13.20
2019-03-03T23:30:54.054Z,13.30
2019-03-03T23:33:24.419Z,13.30
2019-03-03T23:35:54.240Z,13.20
2019-03-03T23:38:25.958Z,13.20
2019-03-03T23:40:55.627Z,13.20
2019-03-03T23:43:25.283Z,13.20
2019-03-03T23:45:55.305Z,13.30
2019-03-03T23:48:25.044Z,13.20
2019-03-03T23:50:54.845Z,13.20
2019-03-03T23:53:24.434Z,13.10
2019-03-03T23:55:54.164Z,13.00
2019-03-03T23:58:23.956Z,13.00
